createdAt,value
2022-08-21T00:00:29.308Z,99929.88
2022-08-21T00:03:17.974Z,99939.94
2022-08-21T00:06:06.868Z,99929.34
2022-08-21T00:09:06.336Z,99931.38
2022-08-21T00:11:55.260Z,99932.69
2022-08-21T00:14:45.363Z,99933.34
2022-08-21T00:17:35.075Z,99920.09
2022-08-21T00:20:23.892Z,99929.22
2022-08-21T00:23:12.683Z,99920.75
2022-08-21T00:26:01.198Z,99927.88
2022-08-21T00:28:49.933Z,99922.44
2022-08-21T00:31:39.764Z,99922.53
2022-08-21T00:34:28.330Z,99914.38
2022-08-21T00:37:16.794Z,99917.09
2022-08-21T00:40:06.286Z,99906.25
2022-08-21T00:42:54.925Z,99913.56
2022-08-21T00:45:43.511Z,99918.69
2022-08-21T00:48:33.436Z,99909.41
2022-08-21T00:51:26.587Z,99916.09
2022-08-21T00:54:18.113Z,99911.09
2022-08-21T00:57:12.301Z,99922.56
2022-08-21T01:00:02.406Z,99922.78
2022-08-21T01:02:50.881Z,99922.28
2022-08-21T01:05:40.893Z,99926.25
2022-08-21T01:08:30.035Z,99926.25
2022-08-21T01:11:18.594Z,99936.28
2022-08-21T01:14:07.250Z,99932.84
2022-08-21T01:16:55.818Z,99926.16
2022-08-21T01:19:44.367Z,99924.19
2022-08-21T01:22:59.982Z,99918.03
2022-08-21T01:25:48.673Z,99925.53
2022-08-21T01:28:39.657Z,99920.63
2022-08-21T01:31:28.715Z,99921.47
2022-08-21T01:34:17.704Z,99920.75
2022-08-21T01:37:06.474Z,99923.88
2022-08-21T01:39:56.501Z,99922.19
2022-08-21T01:42:45.353Z,99923.03
2022-08-21T01:45:33.899Z,99927.19
2022-08-21T01:48:22.539Z,99928.25
2022-08-21T01:51:11.212Z,99929.50
2022-08-21T01:53:59.842Z,99930.75
2022-08-21T01:56:51.984Z,99931.88
2022-08-21T01:59:40.614Z,99926.06
2022-08-21T02:02:29.438Z,99921.69
2022-08-21T02:05:18.129Z,99916.38
2022-08-21T02:08:07.860Z,99919.72
2022-08-21T02:10:56.595Z,99922.19
2022-08-21T02:13:46.583Z,99912.00
2022-08-21T02:16:35.564Z,99913.22
2022-08-21T02:19:25.456Z,99910.75
2022-08-21T02:22:14.083Z,99899.50
2022-08-21T02:25:02.624Z,99905.13
2022-08-21T02:27:54.086Z,99896.91
2022-08-21T02:30:46.484Z,99897.41
2022-08-21T02:33:35.328Z,99904.69
2022-08-21T02:36:23.864Z,99903.03
2022-08-21T02:39:12.460Z,99902.19
2022-08-21T02:42:01.051Z,99900.84
2022-08-21T02:44:50.011Z,99888.09
2022-08-21T02:47:40.258Z,99902.06
2022-08-21T02:50:30.528Z,99896.31
2022-08-21T02:53:19.093Z,99902.34
2022-08-21T02:56:09.852Z,99899.13
2022-08-21T02:58:58.439Z,99895.06
2022-08-21T03:01:47.091Z,99898.69
2022-08-21T03:04:37.150Z,99893.84
2022-08-21T03:07:25.714Z,99893.94
2022-08-21T03:10:14.278Z,99901.13
2022-08-21T03:13:03.365Z,99894.38
2022-08-21T03:15:52.224Z,99901.13
2022-08-21T03:18:41.702Z,99904.78
2022-08-21T03:21:31.862Z,99897.06
2022-08-21T03:24:21.342Z,99897.44
2022-08-21T03:27:12.161Z,99891.63
2022-08-21T03:30:01.139Z,99908.06
2022-08-21T03:32:49.943Z,99907.03
2022-08-21T03:35:38.661Z,99914.09
2022-08-21T03:38:29.714Z,99902.22
2022-08-21T03:41:18.357Z,99905.94
2022-08-21T03:44:07.005Z,99902.63
2022-08-21T03:46:55.589Z,99903.34
2022-08-21T03:49:44.336Z,99904.28
2022-08-21T03:52:32.904Z,99898.25
2022-08-21T03:55:22.978Z,99902.72
2022-08-21T03:58:16.923Z,99904.66
2022-08-21T04:01:07.149Z,99918.25
2022-08-21T04:03:55.729Z,99892.34
2022-08-21T04:06:44.569Z,99909.25
2022-08-21T04:09:33.252Z,99919.66
2022-08-21T04:12:23.770Z,99912.16
2022-08-21T04:15:13.578Z,99923.47
2022-08-21T04:18:02.104Z,99928.00
2022-08-21T04:20:52.082Z,99928.31
2022-08-21T04:23:40.735Z,99931.66
2022-08-21T04:26:29.314Z,99934.44
2022-08-21T04:29:20.782Z,99934.75
2022-08-21T04:32:09.410Z,99940.59
2022-08-21T04:35:02.033Z,99929.34
2022-08-21T04:37:50.870Z,99939.38
2022-08-21T04:40:39.468Z,99947.91
2022-08-21T04:43:29.339Z,99947.69
2022-08-21T04:46:20.018Z,99950.22
2022-08-21T04:49:08.490Z,99946.66
2022-08-21T04:51:57.136Z,99940.00
2022-08-21T04:54:47.037Z,99926.66
2022-08-21T04:57:48.369Z,99948.09
2022-08-21T05:00:38.150Z,99949.09
2022-08-21T05:03:28.156Z,99956.19
2022-08-21T05:06:16.858Z,99949.31
2022-08-21T05:09:05.698Z,99964.81
2022-08-21T05:11:54.293Z,99957.78
2022-08-21T05:14:43.254Z,99950.59
2022-08-21T05:17:32.007Z,99951.25
2022-08-21T05:20:22.144Z,99954.22
2022-08-21T05:23:11.326Z,99962.25
2022-08-21T05:25:59.861Z,99961.06
2022-08-21T05:28:48.513Z,99962.94
2022-08-21T05:31:37.083Z,99963.59
2022-08-21T05:34:26.202Z,99961.84
2022-08-21T05:37:16.233Z,99963.44
2022-08-21T05:40:21.364Z,99959.31
2022-08-21T05:43:11.556Z,99960.22
2022-08-21T05:46:00.661Z,99956.41
2022-08-21T05:48:49.446Z,99949.03
2022-08-21T05:51:38.083Z,99954.88
2022-08-21T05:54:28.203Z,99947.97
2022-08-21T05:57:16.743Z,99951.53
2022-08-21T06:00:07.026Z,99947.28
2022-08-21T06:03:01.614Z,99944.38
2022-08-21T06:05:50.214Z,99931.22
2022-08-21T06:08:38.937Z,99934.38
2022-08-21T06:11:29.280Z,99934.59
2022-08-21T06:14:18.039Z,99938.59
2022-08-21T06:17:06.903Z,99931.06
2022-08-21T06:19:55.538Z,99926.81
2022-08-21T06:22:44.115Z,99925.44
2022-08-21T06:25:32.735Z,99924.22
2022-08-21T06:28:22.784Z,99927.25
2022-08-21T06:31:16.319Z,99934.25
2022-08-21T06:34:04.898Z,99930.94
2022-08-21T06:36:53.483Z,99925.94
2022-08-21T06:39:45.539Z,99938.00
2022-08-21T06:42:34.208Z,99936.81
2022-08-21T06:45:24.598Z,99914.53
2022-08-21T06:48:18.431Z,99937.94
2022-08-21T06:51:07.773Z,99942.38
2022-08-21T06:53:56.590Z,99931.81
2022-08-21T06:56:48.078Z,99938.53
2022-08-21T06:59:36.699Z,99938.00
2022-08-21T07:02:26.986Z,99933.50
2022-08-21T07:05:18.448Z,99945.50
2022-08-21T07:08:07.292Z,99949.47
2022-08-21T07:10:56.147Z,99944.50
2022-08-21T07:13:44.959Z,99943.22
2022-08-21T07:16:33.750Z,99946.59
2022-08-21T07:19:24.055Z,99936.94
2022-08-21T07:22:12.688Z,99941.09
2022-08-21T07:25:01.312Z,99927.78
2022-08-21T07:27:49.870Z,99927.88
2022-08-21T07:30:38.375Z,99927.66
2022-08-21T07:33:27.715Z,99920.78
2022-08-21T07:36:18.387Z,99918.81
2022-08-21T07:39:06.996Z,99921.47
2022-08-21T07:41:55.544Z,99918.22
2022-08-21T07:44:44.234Z,99914.06
2022-08-21T07:47:42.452Z,99914.88
2022-08-21T07:50:31.711Z,99917.03
2022-08-21T07:53:21.797Z,99924.78
2022-08-21T07:56:12.023Z,99919.13
2022-08-21T07:59:00.676Z,99919.13
2022-08-21T08:01:49.257Z,99925.06
2022-08-21T08:04:38.000Z,99928.03
2022-08-21T08:07:39.337Z,99916.25
2022-08-21T08:10:29.476Z,99917.13
2022-08-21T08:13:18.140Z,99921.03
2022-08-21T08:16:07.830Z,99922.81
2022-08-21T08:18:56.804Z,99922.25
2022-08-21T08:21:45.451Z,99911.09
2022-08-21T08:24:34.057Z,99907.03
2022-08-21T08:27:23.956Z,99902.47
2022-08-21T08:30:14.628Z,99892.91
2022-08-21T08:33:03.273Z,99905.91
2022-08-21T08:35:53.157Z,99896.56
2022-08-21T08:38:41.955Z,99891.28
2022-08-21T08:41:33.372Z,99899.66
2022-08-21T08:44:23.741Z,99890.84
2022-08-21T08:47:13.514Z,99883.91
2022-08-21T08:50:05.633Z,99877.97
2022-08-21T08:52:58.698Z,99877.53
2022-08-21T08:55:47.683Z,99869.34
2022-08-21T08:58:40.108Z,99876.41
2022-08-21T09:01:30.244Z,99877.53
2022-08-21T09:04:22.436Z,99877.94
2022-08-21T09:07:17.821Z,99872.00
2022-08-21T09:10:19.384Z,99872.47
2022-08-21T09:13:14.933Z,99862.19
2022-08-21T09:16:07.785Z,99860.94
2022-08-21T09:19:05.426Z,99847.38
2022-08-21T09:22:01.186Z,99849.31
2022-08-21T09:24:58.079Z,99852.34
2022-08-21T09:27:46.894Z,99842.63
2022-08-21T09:30:35.902Z,99849.97
2022-08-21T09:33:24.454Z,99841.22
2022-08-21T09:36:14.551Z,99845.91
2022-08-21T09:39:03.121Z,99842.16
2022-08-21T09:41:57.850Z,99853.16
2022-08-21T09:44:47.297Z,99845.91
2022-08-21T09:47:36.418Z,99848.94
2022-08-21T09:50:27.779Z,99845.00
2022-08-21T09:53:22.540Z,99848.22
2022-08-21T09:56:38.823Z,99837.16
2022-08-21T09:59:36.377Z,99845.66
2022-08-21T10:02:29.121Z,99840.47
2022-08-21T10:05:21.037Z,99839.97
2022-08-21T10:08:20.979Z,99842.66
2022-08-21T10:11:11.786Z,99835.56
2022-08-21T10:14:06.011Z,99830.81
2022-08-21T10:17:01.380Z,99822.34
2022-08-21T10:19:55.146Z,99827.78
2022-08-21T10:22:47.558Z,99830.63
2022-08-21T10:25:56.369Z,99820.91
2022-08-21T10:28:57.499Z,99823.84
2022-08-21T10:31:56.540Z,99811.41
2022-08-21T10:34:50.029Z,99802.44
2022-08-21T10:37:49.365Z,99819.97
2022-08-21T10:40:42.366Z,99821.50
2022-08-21T10:43:36.098Z,99816.13
2022-08-21T10:46:38.814Z,99806.88
2022-08-21T10:49:35.264Z,99823.22
2022-08-21T10:52:48.750Z,99817.66
2022-08-21T10:55:43.277Z,99811.16
2022-08-21T10:58:33.884Z,99813.81
2022-08-21T11:01:28.617Z,99811.41
2022-08-21T11:04:22.050Z,99805.19
2022-08-21T11:07:17.553Z,99801.03
2022-08-21T11:10:23.184Z,99789.41
2022-08-21T11:13:20.093Z,99775.19
2022-08-21T11:16:18.365Z,99785.25
2022-08-21T11:19:11.477Z,99781.66
2022-08-21T11:22:04.414Z,99776.97
2022-08-21T11:24:56.864Z,99767.97
2022-08-21T11:27:48.916Z,99777.91
2022-08-21T11:30:46.636Z,99769.78
2022-08-21T11:33:48.090Z,99771.72
2022-08-21T11:36:45.222Z,99771.59
2022-08-21T11:39:40.457Z,99765.69
2022-08-21T11:42:34.745Z,99754.41
2022-08-21T11:45:29.216Z,99767.97
2022-08-21T11:48:34.989Z,99761.38
2022-08-21T11:51:26.080Z,99758.50
2022-08-21T11:54:22.763Z,99762.56
2022-08-21T11:57:17.893Z,99756.34
2022-08-21T12:00:10.058Z,99759.47
2022-08-21T12:03:10.558Z,99754.47
2022-08-21T12:06:02.132Z,99743.63
2022-08-21T12:09:00.695Z,99739.06
2022-08-21T12:11:50.117Z,99739.50
2022-08-21T12:14:44.664Z,99730.31
2022-08-21T12:17:38.753Z,99734.41
2022-08-21T12:20:50.682Z,99737.63
2022-08-21T12:23:50.542Z,99732.41
2022-08-21T12:26:53.303Z,99731.31
2022-08-21T12:29:47.468Z,99735.41
2022-08-21T12:32:46.333Z,99734.56
2022-08-21T12:35:39.779Z,99730.53
2022-08-21T12:38:30.518Z,99729.94
2022-08-21T12:41:24.137Z,99728.78
2022-08-21T12:44:16.196Z,99730.22
2022-08-21T12:47:07.175Z,99717.31
2022-08-21T12:50:00.316Z,99717.97
2022-08-21T12:52:56.492Z,99704.59
2022-08-21T12:55:45.196Z,99713.19
2022-08-21T12:58:35.125Z,99712.34
2022-08-21T13:01:26.275Z,99717.03
2022-08-21T13:04:19.084Z,99711.91
2022-08-21T13:07:11.907Z,99719.78
2022-08-21T13:10:03.480Z,99722.41
2022-08-21T13:12:52.254Z,99712.34
2022-08-21T13:15:47.593Z,99707.09
2022-08-21T13:18:38.145Z,99711.63
2022-08-21T13:21:31.749Z,99710.41
2022-08-21T13:24:41.822Z,99714.94
2022-08-21T13:27:32.546Z,99722.09
2022-08-21T13:30:23.169Z,99719.66
2022-08-21T13:33:13.640Z,99714.78
2022-08-21T13:36:06.568Z,99700.56
2022-08-21T13:38:55.853Z,99703.47
2022-08-21T13:41:46.211Z,99693.59
2022-08-21T13:44:37.289Z,99703.63
2022-08-21T13:47:25.853Z,99704.56
2022-08-21T13:50:16.669Z,99699.59
2022-08-21T13:53:07.865Z,99708.56
2022-08-21T13:56:00.558Z,99702.50
2022-08-21T13:58:49.751Z,99693.50
2022-08-21T14:01:41.127Z,99685.78
2022-08-21T14:04:35.864Z,99693.56
2022-08-21T14:07:28.285Z,99684.56
2022-08-21T14:10:19.861Z,99679.03
2022-08-21T14:13:09.095Z,99676.56
2022-08-21T14:15:59.261Z,99682.88
2022-08-21T14:18:51.370Z,99668.97
2022-08-21T14:21:41.870Z,99658.69
2022-08-21T14:24:32.375Z,99654.19
2022-08-21T14:27:25.412Z,99659.75
2022-08-21T14:30:19.368Z,99664.47
2022-08-21T14:33:11.507Z,99668.50
2022-08-21T14:36:00.281Z,99656.00
2022-08-21T14:38:48.971Z,99638.59
2022-08-21T14:41:39.345Z,99644.75
2022-08-21T14:44:27.970Z,99652.34
2022-08-21T14:47:16.529Z,99649.84
2022-08-21T14:50:05.449Z,99649.19
2022-08-21T14:52:54.493Z,99639.28
2022-08-21T14:58:48.019Z,99637.66
2022-08-21T15:01:46.083Z,99617.53
2022-08-21T15:04:34.920Z,99636.88
2022-08-21T15:07:23.514Z,99624.19
2022-08-21T15:10:12.285Z,99633.34
2022-08-21T15:13:01.182Z,99614.69
2022-08-21T15:15:53.630Z,99620.47
2022-08-21T15:18:42.843Z,99626.03
2022-08-21T15:21:31.412Z,99621.31
2022-08-21T15:24:20.018Z,99629.91
2022-08-21T15:27:09.413Z,99630.88
2022-08-21T15:29:58.295Z,99634.34
2022-08-21T15:32:48.595Z,99637.25
2022-08-21T15:35:37.476Z,99627.41
2022-08-21T15:38:30.273Z,99631.78
2022-08-21T15:41:19.096Z,99633.22
2022-08-21T15:44:11.441Z,99620.91
2022-08-21T15:47:00.705Z,99629.91
2022-08-21T15:49:51.044Z,99617.13
2022-08-21T15:52:40.191Z,99631.81
2022-08-21T15:55:28.940Z,99620.75
2022-08-21T15:58:18.032Z,99612.16
2022-08-21T16:01:06.845Z,99621.13
2022-08-21T16:03:55.440Z,99613.34
2022-08-21T16:06:54.072Z,99608.19
2022-08-21T16:09:45.358Z,99608.97
2022-08-21T16:12:35.859Z,99609.97
2022-08-21T16:15:24.522Z,99604.97
2022-08-21T16:18:12.993Z,99618.47
2022-08-21T16:21:01.515Z,99615.50
2022-08-21T16:23:51.515Z,99609.13
2022-08-21T16:26:40.012Z,99611.41
2022-08-21T16:29:28.876Z,99609.78
2022-08-21T16:32:18.368Z,99601.16
2022-08-21T16:35:07.331Z,99595.66
2022-08-21T16:37:55.993Z,99602.16
2022-08-21T16:40:46.123Z,99599.69
2022-08-21T16:43:34.651Z,99601.34
2022-08-21T16:46:23.136Z,99591.59
2022-08-21T16:49:11.727Z,99587.16
2022-08-21T16:52:00.462Z,99586.91
2022-08-21T16:54:48.902Z,99579.75
2022-08-21T16:57:38.821Z,99583.03
2022-08-21T17:00:27.297Z,99575.06
2022-08-21T17:03:18.258Z,99573.19
2022-08-21T17:06:07.302Z,99575.66
2022-08-21T17:08:55.769Z,99570.47
2022-08-21T17:11:47.614Z,99556.38
2022-08-21T17:14:37.862Z,99576.09
2022-08-21T17:17:26.396Z,99572.19
2022-08-21T17:20:15.702Z,99570.91
2022-08-21T17:23:04.418Z,99576.66
2022-08-21T17:25:54.530Z,99584.81
2022-08-21T17:28:43.155Z,99580.34
2022-08-21T17:31:33.503Z,99577.63
2022-08-21T17:34:21.988Z,99576.44
2022-08-21T17:37:10.402Z,99573.03
2022-08-21T17:39:58.872Z,99582.53
2022-08-21T17:42:48.270Z,99582.47
2022-08-21T17:45:37.165Z,99579.47
2022-08-21T17:48:30.295Z,99580.97
2022-08-21T17:51:19.081Z,99582.09
2022-08-21T17:54:07.757Z,99578.03
2022-08-21T17:56:56.182Z,99578.44
2022-08-21T17:59:45.141Z,99569.88
2022-08-21T18:02:34.003Z,99571.88
2022-08-21T18:05:25.221Z,99576.69
2022-08-21T18:08:14.558Z,99574.59
2022-08-21T18:11:03.422Z,99581.47
2022-08-21T18:13:52.032Z,99579.31
2022-08-21T18:16:40.508Z,99586.53
2022-08-21T18:19:29.085Z,99591.91
2022-08-21T18:22:19.292Z,99590.53
2022-08-21T18:25:08.928Z,99587.31
2022-08-21T18:27:57.619Z,99584.75
2022-08-21T18:30:46.723Z,99588.63
2022-08-21T18:33:35.864Z,99594.47
2022-08-21T18:36:24.721Z,99596.00
2022-08-21T18:39:35.509Z,99606.44
2022-08-21T18:42:28.383Z,99602.28
2022-08-21T18:45:19.646Z,99603.66
2022-08-21T18:48:09.393Z,99612.28
2022-08-21T18:50:57.889Z,99607.63
2022-08-21T18:53:48.453Z,99610.88
2022-08-21T18:56:43.905Z,99611.25
2022-08-21T18:59:32.679Z,99617.53
2022-08-21T19:02:21.772Z,99621.75
2022-08-21T19:05:13.533Z,99624.91
2022-08-21T19:08:02.079Z,99621.22
2022-08-21T19:10:52.073Z,99626.09
2022-08-21T19:13:42.135Z,99627.38
2022-08-21T19:16:30.566Z,99623.81
2022-08-21T19:19:19.571Z,99632.41
2022-08-21T19:22:10.834Z,99622.75
2022-08-21T19:24:59.906Z,99623.19
2022-08-21T19:27:48.734Z,99621.56
2022-08-21T19:30:40.630Z,99625.31
2022-08-21T19:33:33.639Z,99624.69
2022-08-21T19:36:22.341Z,99619.31
2022-08-21T19:39:11.062Z,99629.69
2022-08-21T19:42:00.432Z,99634.66
2022-08-21T19:44:54.195Z,99636.44
2022-08-21T19:47:48.749Z,99633.28
2022-08-21T19:50:38.043Z,99610.13
2022-08-21T19:53:26.767Z,99632.75
2022-08-21T19:56:20.474Z,99631.09
2022-08-21T19:59:10.773Z,99637.03
2022-08-21T20:01:59.504Z,99636.31
2022-08-21T20:04:53.478Z,99630.47
2022-08-21T20:07:43.404Z,99628.63
2022-08-21T20:10:32.338Z,99626.09
2022-08-21T20:13:22.377Z,99635.06
2022-08-21T20:16:13.419Z,99628.53
2022-08-21T20:19:03.674Z,99634.75
2022-08-21T20:21:55.104Z,99634.31
2022-08-21T20:24:46.595Z,99634.00
2022-08-21T20:27:36.386Z,99634.00
2022-08-21T20:30:29.312Z,99633.31
2022-08-21T20:33:18.256Z,99637.44
2022-08-21T20:36:07.361Z,99632.63
2022-08-21T20:38:58.956Z,99627.50
2022-08-21T20:41:47.779Z,99633.63
2022-08-21T20:44:36.473Z,99633.78
2022-08-21T20:47:25.420Z,99627.16
2022-08-21T20:50:20.699Z,99630.38
2022-08-21T20:53:13.446Z,99627.38
2022-08-21T20:56:04.325Z,99629.00
2022-08-21T20:58:56.197Z,99630.94
2022-08-21T21:01:44.678Z,99626.81
2022-08-21T21:04:37.804Z,99636.38
2022-08-21T21:07:30.842Z,99640.09
2022-08-21T21:10:26.657Z,99625.75
2022-08-21T21:13:22.598Z,99628.50
2022-08-21T21:16:13.788Z,99630.75
2022-08-21T21:19:05.133Z,99631.59
2022-08-21T21:21:58.234Z,99644.84
2022-08-21T21:24:54.269Z,99642.53
2022-08-21T21:27:48.958Z,99635.75
2022-08-21T21:30:46.418Z,99642.66
2022-08-21T21:33:35.326Z,99626.91
2022-08-21T21:36:30.593Z,99631.63
2022-08-21T21:39:25.044Z,99641.84
2022-08-21T21:45:32.044Z,99632.50
2022-08-21T21:48:27.661Z,99643.53
2022-08-21T21:51:20.814Z,99638.31
2022-08-21T21:54:18.760Z,99641.34
2022-08-21T21:57:14.995Z,99639.81
2022-08-21T22:00:10.134Z,99634.88
2022-08-21T22:03:09.858Z,99639.97
2022-08-21T22:06:07.947Z,99635.00
2022-08-21T22:09:01.064Z,99637.50
2022-08-21T22:12:02.398Z,99630.31
2022-08-21T22:14:51.570Z,99630.47
2022-08-21T22:17:45.576Z,99620.38
2022-08-21T22:20:38.332Z,99640.53
2022-08-21T22:23:34.297Z,99630.63
2022-08-21T22:26:28.687Z,99636.97
2022-08-21T22:29:20.369Z,99640.56
2022-08-21T22:32:11.904Z,99641.13
2022-08-21T22:41:33.924Z,99647.78
2022-08-21T22:44:24.525Z,99641.84
2022-08-21T22:47:21.053Z,99650.84
2022-08-21T22:50:20.850Z,99655.66
2022-08-21T22:53:09.972Z,99663.28
2022-08-21T22:56:00.345Z,99653.47
2022-08-21T22:58:57.323Z,99663.56
2022-08-21T23:01:45.925Z,99673.75
2022-08-21T23:04:48.293Z,99659.38
2022-08-21T23:07:43.089Z,99668.34
2022-08-21T23:10:35.107Z,99673.53
2022-08-21T23:13:23.638Z,99672.84
2022-08-21T23:16:31.597Z,99658.91
2022-08-21T23:19:39.195Z,99668.09
2022-08-21T23:22:37.484Z,99660.78
2022-08-21T23:25:57.851Z,99654.28
2022-08-21T23:28:59.033Z,99656.28
2022-08-21T23:31:54.838Z,99650.25
2022-08-21T23:34:45.823Z,99653.09
2022-08-21T23:37:51.596Z,99655.78
2022-08-21T23:40:51.381Z,99651.91
2022-08-21T23:43:47.434Z,99664.50
2022-08-21T23:46:54.030Z,99635.22
2022-08-21T23:49:53.785Z,99651.75
2022-08-21T23:52:52.728Z,99659.50
2022-08-21T23:55:59.879Z,99669.19
2022-08-21T23:58:54.229Z,99636.34
